Time;durP1;ratioP1;P1;durP2;ratioP2;P2;SDS_P1;SDS_P2;PMS_P1;PMS_P2;Temp;Humidity;BMP_temperature;BMP_pressure;BME280_temperature;BME280_humidity;BME280_pressure;Samples;Min_cycle;Max_cycle;Signal;HPM_P1;HPM_P2
2021/06/20 00:01:09;;;;;;;6.58;2.75;;;;;;;20.47;92.68;99319.11;1750137;82;21021;-74
2021/06/20 00:03:36;;;;;;;7.58;2.47;;;;;;;20.47;92.87;99315.14;1749846;82;20989;-74
2021/06/20 00:06:34;;;;;;;4.85;2.45;;;;;;;20.46;92.88;99309.50;1750003;82;21942;-74
2021/06/20 00:09:06;;;;;;;7.17;2.45;;;;;;;20.45;92.92;99314.44;1690067;84;21085;-72
2021/06/20 00:11:38;;;;;;;5.95;2.22;;;;;;;20.43;92.76;99316.36;1739433;82;20977;-72
2021/06/20 00:14:05;;;;;;;4.03;2.25;;;;;;;20.38;92.85;99313.30;1750212;82;20947;-72
2021/06/20 00:16:33;;;;;;;6.03;2.22;;;;;;;20.37;92.86;99322.67;1750103;82;20990;-74
2021/06/20 00:18:59;;;;;;;6.55;2.33;;;;;;;20.35;92.76;99323.25;1749882;82;21795;-74
2021/06/20 00:21:26;;;;;;;6.22;2.33;;;;;;;20.33;92.70;99324.69;1750036;82;20981;-73
2021/06/20 00:23:53;;;;;;;8.20;2.83;;;;;;;20.29;92.62;99323.27;1749989;82;21422;-73
2021/06/20 00:26:19;;;;;;;6.05;1.92;;;;;;;20.24;92.68;99325.45;1749874;82;20974;-73
2021/06/20 00:28:47;;;;;;;5.60;2.52;;;;;;;20.17;92.81;99329.10;1750015;82;21576;-74
2021/06/20 00:31:14;;;;;;;6.05;2.15;;;;;;;20.12;93.00;99341.00;1749868;82;21125;-73
2021/06/20 00:33:42;;;;;;;4.60;2.60;;;;;;;20.03;93.22;99345.23;1749741;82;20925;-73
2021/06/20 00:36:10;;;;;;;4.28;2.30;;;;;;;19.94;93.59;99344.68;1749770;82;20974;-73
2021/06/20 00:38:36;;;;;;;6.95;1.90;;;;;;;19.85;94.00;99342.30;1749765;82;21113;-74
2021/06/20 00:41:03;;;;;;;7.47;2.55;;;;;;;19.80;94.41;99334.39;1750042;82;20977;-73
2021/06/20 00:43:30;;;;;;;9.68;2.12;;;;;;;19.76;94.72;99327.71;1749779;82;21136;-73
2021/06/20 00:45:56;;;;;;;5.40;2.15;;;;;;;19.72;94.97;99332.39;1749810;82;21016;-74
2021/06/20 00:48:22;;;;;;;6.85;1.80;;;;;;;19.68;95.14;99330.96;1749868;80;21402;-74
2021/06/20 00:50:49;;;;;;;8.30;2.00;;;;;;;19.64;95.42;99316.34;1749944;82;21009;-73
2021/06/20 00:53:15;;;;;;;4.15;2.12;;;;;;;19.61;95.70;99326.66;1749800;82;20974;-73
2021/06/20 00:55:44;;;;;;;8.28;2.45;;;;;;;19.58;95.99;99321.62;1749830;82;21124;-73
2021/06/20 00:58:10;;;;;;;6.03;2.20;;;;;;;19.56;96.27;99323.57;1749726;82;20978;-73
2021/06/20 01:00:37;;;;;;;5.17;2.00;;;;;;;19.55;96.44;99328.48;1749819;82;21029;-73
2021/06/20 01:03:05;;;;;;;4.83;2.30;;;;;;;19.54;96.58;99325.97;1750015;82;21394;-73
2021/06/20 01:05:32;;;;;;;7.20;2.10;;;;;;;19.54;96.66;99322.86;1749810;82;21414;-73
2021/06/20 01:08:00;;;;;;;5.12;1.95;;;;;;;19.55;96.72;99315.78;1749791;82;20958;-73
2021/06/20 01:10:30;;;;;;;7.05;2.55;;;;;;;19.57;96.70;99308.58;1749844;82;20993;-73
2021/06/20 01:12:56;;;;;;;8.05;2.58;;;;;;;19.58;96.58;99300.52;1749797;82;21017;-73
2021/06/20 01:15:23;;;;;;;8.90;2.20;;;;;;;19.63;96.43;99300.63;1749708;82;20989;-73
2021/06/20 01:17:50;;;;;;;5.53;1.77;;;;;;;19.67;96.27;99310.81;1749964;82;21537;-73
2021/06/20 01:20:18;;;;;;;11.00;2.20;;;;;;;19.70;95.99;99299.17;1749888;82;21250;-73
2021/06/20 01:22:46;;;;;;;3.80;2.33;;;;;;;19.72;95.82;99293.30;1749884;82;20962;-73
2021/06/20 01:25:15;;;;;;;5.10;1.87;;;;;;;19.74;95.47;99300.61;1750096;82;21434;-73
2021/06/20 01:27:49;;;;;;;3.25;2.10;;;;;;;19.74;95.29;99295.33;1749860;82;20950;-73
2021/06/20 01:30:22;;;;;;;9.43;2.33;;;;;;;19.74;95.03;99295.33;1750163;82;21549;-73
2021/06/20 01:32:49;;;;;;;;;;;;;;;19.74;94.91;99299.29;1751768;82;22337;-73
2021/06/20 01:35:15;;;;;;;7.53;2.40;;;;;;;19.72;95.09;99298.57;1750069;82;20109;-74
2021/06/20 01:37:42;;;;;;;6.62;2.15;;;;;;;19.69;95.60;99304.94;1749819;82;20942;-74
2021/06/20 01:40:13;;;;;;;5.08;2.70;;;;;;;19.66;96.02;99302.54;1749830;82;20993;-73
2021/06/20 01:42:39;;;;;;;5.30;2.70;;;;;;;19.64;96.34;99296.55;1749775;80;20998;-73
2021/06/20 01:45:08;;;;;;;5.30;2.20;;;;;;;19.60;96.71;99295.95;1749724;82;21134;-73
2021/06/20 01:47:36;;;;;;;5.05;2.17;;;;;;;19.56;96.79;99286.64;1749700;82;20974;-74
2021/06/20 01:50:07;;;;;;;6.75;2.17;;;;;;;19.53;97.00;99278.13;1749671;81;20982;-73
2021/06/20 01:52:33;;;;;;;7.12;2.35;;;;;;;19.51;97.20;99277.41;1749965;82;21391;-74
2021/06/20 01:55:00;;;;;;;7.35;2.65;;;;;;;19.49;97.27;99282.78;1749791;82;21044;-73
2021/06/20 01:57:29;;;;;;;4.22;2.30;;;;;;;19.47;97.29;99278.10;1749800;82;21151;-73
2021/06/20 01:59:57;;;;;;;6.35;2.47;;;;;;;19.46;97.25;99293.58;1749699;82;20946;-73
2021/06/20 02:02:26;;;;;;;4.83;2.33;;;;;;;19.45;97.25;99285.78;1749805;82;21422;-74
2021/06/20 02:04:55;;;;;;;3.37;1.82;;;;;;;19.43;97.32;99290.34;1749772;82;20978;-74
2021/06/20 02:07:24;;;;;;;3.75;2.02;;;;;;;19.43;97.41;99304.84;1749755;82;20934;-73
2021/06/20 02:09:51;;;;;;;3.17;1.80;;;;;;;19.42;97.42;99299.21;1749809;82;21871;-73
2021/06/20 02:12:20;;;;;;;4.62;2.15;;;;;;;19.42;97.38;99307.13;1749657;82;21005;-73
2021/06/20 02:14:46;;;;;;;6.30;2.10;;;;;;;19.43;97.39;99304.84;1749826;82;20946;-73
2021/06/20 02:17:23;;;;;;;6.28;2.10;;;;;;;19.45;97.24;99297.65;1749797;82;20993;-74
2021/06/20 02:19:52;;;;;;;6.25;2.30;;;;;;;19.49;97.07;99310.95;1750128;82;20985;-75
2021/06/20 02:22:19;;;;;;;5.58;1.82;;;;;;;19.50;96.92;99307.39;1749667;82;21106;-73
2021/06/20 02:24:45;;;;;;;6.75;2.00;;;;;;;19.50;96.77;99308.70;1750083;82;21461;-73
2021/06/20 02:27:13;;;;;;;5.40;2.02;;;;;;;19.50;96.90;99307.39;1749719;82;20978;-74
2021/06/20 02:29:41;;;;;;;6.70;2.30;;;;;;;19.52;96.95;99312.91;1749984;82;21493;-74
2021/06/20 02:32:09;;;;;;;10.20;2.40;;;;;;;19.53;96.61;99293.95;1749923;82;21037;-74
2021/06/20 02:34:37;;;;;;;6.62;2.70;;;;;;;19.56;96.59;99294.55;1750360;82;21116;-73
2021/06/20 02:37:05;;;;;;;4.30;1.95;;;;;;;19.58;96.44;99287.32;1749927;82;20921;-73
2021/06/20 02:39:32;;;;;;;7.40;2.30;;;;;;;19.62;96.28;99285.27;1749721;82;20982;-73
2021/06/20 02:41:59;;;;;;;6.22;2.33;;;;;;;19.65;96.16;99276.28;1749675;81;20969;-74
2021/06/20 02:44:26;;;;;;;11.12;2.47;;;;;;;19.63;95.88;99273.77;1750029;82;21383;-74
2021/06/20 02:46:54;;;;;;;4.78;2.27;;;;;;;19.63;95.73;99259.73;1749708;82;21217;-73
2021/06/20 02:49:20;;;;;;;8.65;1.92;;;;;;;19.64;95.45;99270.64;1752829;81;20990;-73
2021/06/20 02:51:47;;;;;;;4.30;1.90;;;;;;;19.64;94.93;99273.28;1755490;81;21580;-73
2021/06/20 02:54:13;;;;;;;7.00;2.20;;;;;;;19.66;94.67;99275.31;1755438;81;21414;-74
2021/06/20 02:56:41;;;;;;;7.40;1.92;;;;;;;19.66;94.71;99275.31;1755313;81;20981;-73
2021/06/20 02:59:07;;;;;;;8.10;2.25;;;;;;;19.69;93.92;99281.67;1755313;81;21087;-74
2021/06/20 03:01:35;;;;;;;5.35;1.82;;;;;;;19.70;93.88;99284.66;1755314;81;21364;-74
2021/06/20 03:04:02;;;;;;;5.97;2.02;;;;;;;19.72;93.91;99284.06;1755402;81;21091;-73
2021/06/20 03:06:28;;;;;;;7.75;2.02;;;;;;;19.75;93.93;99281.17;1755499;81;21774;-73
2021/06/20 03:08:57;;;;;;;6.40;1.95;;;;;;;19.79;93.68;99280.77;1755569;81;21067;-73
2021/06/20 03:11:23;;;;;;;3.40;1.90;;;;;;;19.81;93.32;99286.77;1755561;81;21143;-73
2021/06/20 03:13:50;;;;;;;4.55;1.82;;;;;;;19.82;93.14;99283.16;1755495;81;20977;-74
2021/06/20 03:16:19;;;;;;;2.52;1.60;;;;;;;19.82;93.05;99287.60;1755448;81;21068;-74
2021/06/20 03:18:48;;;;;;;6.87;2.02;;;;;;;19.81;93.03;99284.61;1755946;80;21438;-74
2021/06/20 03:21:15;;;;;;;4.92;1.80;;;;;;;19.80;92.78;99279.81;1755543;81;20941;-74
2021/06/20 03:23:43;;;;;;;4.12;1.70;;;;;;;19.81;92.97;99281.48;1755540;81;21162;-73
2021/06/20 03:26:10;;;;;;;4.05;1.47;;;;;;;19.83;92.73;99278.72;1755396;81;20970;-73
2021/06/20 03:28:37;;;;;;;5.95;1.90;;;;;;;19.84;92.34;99284.36;1755445;81;21060;-74
2021/06/20 03:31:04;;;;;;;5.80;2.35;;;;;;;19.85;92.19;99287.35;1755412;81;20982;-74
2021/06/20 03:33:31;;;;;;;5.42;2.50;;;;;;;19.86;92.06;99281.11;1755561;81;20945;-75
2021/06/20 03:35:59;;;;;;;4.60;1.92;;;;;;;19.87;91.93;99299.95;1755444;81;20981;-74
2021/06/20 03:38:26;;;;;;;2.37;1.72;;;;;;;19.88;91.75;99301.14;1755475;81;20949;-74
2021/06/20 03:40:52;;;;;;;4.05;1.72;;;;;;;19.90;91.73;99299.22;1755541;81;20934;-74
2021/06/20 03:43:19;;;;;;;7.22;2.45;;;;;;;19.93;91.47;99298.13;1755605;81;21478;-74
2021/06/20 03:45:45;;;;;;;6.33;2.60;;;;;;;19.92;91.66;99291.17;1755546;81;20993;-74
2021/06/20 03:48:12;;;;;;;5.28;2.00;;;;;;;19.93;91.81;99302.09;1755669;81;21103;-74
2021/06/20 03:50:38;;;;;;;7.95;2.25;;;;;;;19.94;91.81;99287.45;1755406;81;21033;-74
2021/06/20 03:53:05;;;;;;;6.78;2.12;;;;;;;19.97;91.83;99292.95;1755697;81;20945;-74
2021/06/20 03:55:31;;;;;;;5.60;2.12;;;;;;;20.01;92.01;99309.35;1755384;81;20946;-74
2021/06/20 03:57:58;;;;;;;7.28;2.00;;;;;;;20.08;92.02;99331.66;1755502;80;20990;-75
2021/06/20 04:00:24;;;;;;;6.62;2.72;;;;;;;20.18;91.20;99327.30;1755443;81;21136;-75
2021/06/20 04:02:51;;;;;;;3.47;1.87;;;;;;;20.34;90.56;99305.23;1755419;81;20974;-75
2021/06/20 04:05:17;;;;;;;5.85;2.15;;;;;;;20.53;90.41;99301.91;1755567;81;21076;-75
2021/06/20 04:07:45;;;;;;;5.50;2.00;;;;;;;20.68;89.49;99313.80;1755423;81;20981;-74
2021/06/20 04:10:13;;;;;;;5.80;2.35;;;;;;;20.77;88.56;99295.02;1755723;81;21446;-75
2021/06/20 04:12:39;;;;;;;7.05;1.90;;;;;;;20.85;87.62;99304.42;1755485;81;21113;-75
2021/06/20 04:15:07;;;;;;;3.47;1.70;;;;;;;20.92;87.21;99322.76;1755557;81;21418;-74
2021/06/20 04:17:35;;;;;;;6.03;1.90;;;;;;;20.95;87.16;99330.43;1755481;81;20929;-74
2021/06/20 04:20:03;;;;;;;5.25;1.72;;;;;;;20.98;86.45;99327.01;1755410;81;21445;-74
2021/06/20 04:22:30;;;;;;;5.37;2.20;;;;;;;20.98;85.60;99327.01;1755509;81;21037;-74
2021/06/20 04:24:57;;;;;;;2.90;1.60;;;;;;;21.02;85.65;99328.07;1755463;81;21137;-74
2021/06/20 04:27:23;;;;;;;6.10;2.02;;;;;;;21.01;85.63;99304.76;1755434;80;21005;-75
2021/06/20 04:29:50;;;;;;;2.75;1.77;;;;;;;21.04;85.24;99289.11;1755416;81;21025;-74
2021/06/20 04:32:17;;;;;;;4.70;2.20;;;;;;;21.02;84.65;99290.56;1755676;81;21539;-74
2021/06/20 04:34:43;;;;;;;5.55;1.92;;;;;;;20.99;84.88;99289.51;1755408;81;20945;-74
2021/06/20 04:37:10;;;;;;;5.37;2.15;;;;;;;20.99;84.67;99296.12;1755490;81;22339;-74
2021/06/20 04:39:36;;;;;;;6.80;1.80;;;;;;;21.03;85.08;99298.02;1755404;81;20929;-74
2021/06/20 04:42:05;;;;;;;4.17;1.57;;;;;;;21.05;84.48;99294.27;1755344;81;21494;-74
2021/06/20 04:44:44;;;;;;;5.90;2.35;;;;;;;21.08;84.50;99291.36;1755497;81;20970;-74
2021/06/20 04:47:14;;;;;;;9.28;2.17;;;;;;;21.14;84.06;99290.84;1755711;81;20965;-74
2021/06/20 04:49:41;;;;;;;2.55;1.77;;;;;;;21.15;83.24;99301.77;1752654;81;21154;-74
2021/06/20 04:52:09;;;;;;;5.97;1.87;;;;;;;21.17;83.37;99301.64;1749770;82;21069;-74
2021/06/20 04:54:48;;;;;;;2.50;1.70;;;;;;;21.17;83.04;99304.28;1749944;82;21096;-74
2021/06/20 04:57:08;;;;;;;4.22;1.85;;;;;;;21.16;83.28;99309.22;1747521;82;21410;-74
2021/06/20 04:59:34;;;;;;;2.35;1.85;;;;;;;21.16;82.42;99290.70;1750074;82;20995;-74
2021/06/20 05:02:01;;;;;;;4.95;2.20;;;;;;;21.35;82.00;99278.88;1749839;82;21129;-74
2021/06/20 05:04:27;;;;;;;3.83;1.72;;;;;;;21.68;81.38;99263.58;1749882;82;21493;-74
2021/06/20 05:06:55;;;;;;;3.83;2.22;;;;;;;21.90;80.76;99277.87;1749839;82;20954;-75
2021/06/20 05:09:21;;;;;;;7.25;2.25;;;;;;;22.03;79.47;99274.47;1749959;82;21402;-74
2021/06/20 05:11:47;;;;;;;6.95;1.77;;;;;;;22.05;78.27;99272.52;1749779;82;21042;-74
2021/06/20 05:14:15;;;;;;;7.33;1.70;;;;;;;22.09;77.98;99270.42;1749819;82;21419;-74
2021/06/20 05:16:42;;;;;;;5.50;1.60;;;;;;;22.16;77.35;99264.92;1749969;82;20950;-73
2021/06/20 05:19:08;;;;;;;4.00;1.92;;;;;;;22.26;76.88;99257.78;1749921;82;21457;-72
2021/06/20 05:21:35;;;;;;;9.08;2.10;;;;;;;22.34;76.32;99263.21;1749787;82;21053;-73
2021/06/20 05:24:03;;;;;;;8.03;1.77;;;;;;;22.45;75.34;99255.08;1749850;82;21038;-73
2021/06/20 05:26:29;;;;;;;7.25;1.92;;;;;;;22.66;75.14;99252.22;1749741;82;21139;-73
2021/06/20 05:28:56;;;;;;;5.00;1.80;;;;;;;22.96;72.41;99253.81;1749949;82;20906;-74
2021/06/20 05:31:22;;;;;;;4.60;1.85;;;;;;;23.22;71.36;99252.10;1749838;82;20950;-74
2021/06/20 05:33:49;;;;;;;5.10;1.80;;;;;;;23.47;71.34;99258.51;1749699;82;20985;-73
2021/06/20 05:36:15;;;;;;;3.62;1.75;;;;;;;23.78;69.89;99269.61;1749851;82;21124;-74
2021/06/20 05:38:42;;;;;;;5.83;1.47;;;;;;;24.11;68.11;99276.55;1749681;82;21132;-74
2021/06/20 05:41:08;;;;;;;3.42;1.80;;;;;;;24.36;67.07;99275.28;1749771;82;20994;-74
2021/06/20 05:43:35;;;;;;;4.20;1.87;;;;;;;24.60;66.63;99285.20;1749945;80;20942;-73
2021/06/20 05:46:02;;;;;;;4.50;1.75;;;;;;;24.85;65.16;99279.53;1749951;82;20927;-74
2021/06/20 05:48:29;;;;;;;3.12;1.62;;;;;;;24.97;64.42;99280.97;1749802;82;20989;-73
2021/06/20 05:50:56;;;;;;;3.87;1.60;;;;;;;25.02;64.08;99281.30;1754546;81;21141;-75
2021/06/20 05:53:23;;;;;;;7.42;1.87;;;;;;;25.00;64.07;99281.12;1755355;81;20986;-74
2021/06/20 05:55:49;;;;;;;3.87;1.70;;;;;;;24.89;62.92;99286.20;1755365;81;21473;-75
2021/06/20 05:58:16;;;;;;;3.33;1.55;;;;;;;24.73;63.71;99281.65;1755423;81;20952;-74
2021/06/20 06:00:42;;;;;;;5.33;1.37;;;;;;;24.63;62.41;99287.56;1755352;81;20985;-75
2021/06/20 06:03:09;;;;;;;3.85;1.40;;;;;;;24.51;63.42;99276.03;1755469;80;22043;-74
2021/06/20 06:05:36;;;;;;;2.42;1.40;;;;;;;24.52;62.82;99284.34;1755256;81;20933;-73
2021/06/20 06:08:02;;;;;;;2.90;1.37;;;;;;;24.55;62.03;99268.08;1755419;81;20962;-75
2021/06/20 06:10:29;;;;;;;5.37;1.37;;;;;;;24.65;62.55;99273.61;1755599;81;20981;-75
2021/06/20 06:12:57;;;;;;;2.25;1.50;;;;;;;24.77;60.83;99276.84;1755334;81;20946;-74
2021/06/20 06:15:25;;;;;;;3.55;1.37;;;;;;;24.83;61.02;99271.38;1755305;81;21160;-73
2021/06/20 06:17:52;;;;;;;4.20;1.57;;;;;;;24.90;60.90;99261.27;1755446;81;21131;-75
2021/06/20 06:20:18;;;;;;;4.05;1.62;;;;;;;25.00;61.30;99263.33;1755582;80;21001;-75
2021/06/20 06:22:46;;;;;;;6.22;1.72;;;;;;;25.15;59.89;99260.91;1755577;81;21409;-75
2021/06/20 06:25:13;;;;;;;6.37;1.57;;;;;;;25.21;58.54;99268.72;1755507;81;20994;-75
2021/06/20 06:27:41;;;;;;;3.65;1.70;;;;;;;25.22;59.45;99249.93;1755421;81;21111;-73
2021/06/20 06:30:09;;;;;;;4.78;1.37;;;;;;;25.35;59.72;99240.17;1755223;81;20985;-74
2021/06/20 06:32:37;;;;;;;4.97;1.35;;;;;;;25.51;58.27;99239.36;1755708;81;20953;-74
2021/06/20 06:35:06;;;;;;;4.60;1.17;;;;;;;25.52;57.29;99239.70;1755291;81;20981;-74
2021/06/20 06:37:32;;;;;;;2.33;1.65;;;;;;;25.49;57.52;99246.17;1755332;80;20993;-74
2021/06/20 06:39:59;;;;;;;6.00;1.25;;;;;;;25.53;58.22;99245.36;1755477;81;21137;-74
2021/06/20 06:42:26;;;;;;;3.10;1.25;;;;;;;25.60;57.40;99247.17;1755659;81;21398;-75
2021/06/20 06:44:53;;;;;;;3.35;1.47;;;;;;;25.67;56.81;99243.39;1755462;81;21009;-74
2021/06/20 06:47:21;;;;;;;4.97;1.55;;;;;;;25.70;56.44;99246.56;1755556;81;21020;-74
2021/06/20 06:49:48;;;;;;;4.25;1.50;;;;;;;25.67;55.35;99238.91;1753790;81;21034;-74
2021/06/20 06:52:15;;;;;;;3.42;1.50;;;;;;;25.62;56.16;99235.03;1749847;80;21137;-74
2021/06/20 06:54:55;;;;;;;5.67;1.37;;;;;;;25.53;56.13;99226.71;1749831;82;20926;-76
2021/06/20 06:57:23;;;;;;;8.25;1.47;;;;;;;25.43;56.76;99222.86;1750131;82;21040;-74
2021/06/20 06:59:51;;;;;;;6.78;1.75;;;;;;;25.36;57.70;99214.72;1750187;80;21002;-75
2021/06/20 07:02:17;;;;;;;10.55;1.87;;;;;;;25.37;57.40;99223.04;1749939;82;21068;-74
2021/06/20 07:04:46;;;;;;;4.35;1.75;;;;;;;25.38;57.79;99213.19;1749978;82;21133;-74
2021/06/20 07:07:14;;;;;;;4.62;1.67;;;;;;;25.37;58.05;99208.39;1721371;82;20942;-74
2021/06/20 07:09:40;;;;;;;3.25;1.55;;;;;;;25.47;58.57;99208.22;1750070;82;20993;-74
2021/06/20 07:12:08;;;;;;;5.17;1.52;;;;;;;25.60;58.24;99205.06;1750103;82;21426;-74
2021/06/20 07:14:36;;;;;;;10.18;1.52;;;;;;;25.67;57.66;99204.28;1750194;82;20989;-74
2021/06/20 07:17:04;;;;;;;3.55;1.60;;;;;;;25.71;56.23;99208.78;1749847;82;21835;-74
2021/06/20 07:19:33;;;;;;;8.48;1.77;;;;;;;25.69;55.54;99222.27;1749781;82;20994;-74
2021/06/20 07:21:59;;;;;;;4.22;1.85;;;;;;;25.64;55.04;99211.27;1749787;82;21058;-75
2021/06/20 07:24:25;;;;;;;7.37;1.90;;;;;;;25.59;54.89;99208.72;1749891;82;21399;-75
2021/06/20 07:26:53;;;;;;;11.85;2.05;;;;;;;25.48;55.25;99197.08;1749927;82;20958;-74
2021/06/20 07:29:20;;;;;;;4.70;1.85;;;;;;;25.41;56.74;99195.06;1749885;80;21185;-74
2021/06/20 07:31:47;;;;;;;12.00;1.90;;;;;;;25.39;56.02;99205.54;1749759;82;20921;-74
2021/06/20 07:34:13;;;;;;;8.93;2.02;;;;;;;25.37;56.71;99200.91;1750209;82;21393;-75
2021/06/20 07:36:40;;;;;;;12.43;2.42;;;;;;;25.34;55.68;99193.24;1749888;82;21030;-74
2021/06/20 07:39:06;;;;;;;17.12;2.50;;;;;;;25.29;55.76;99201.71;1750104;82;20977;-74
2021/06/20 07:41:32;;;;;;;14.75;2.42;;;;;;;25.27;56.82;99198.38;1749868;82;21133;-75
2021/06/20 07:43:59;;;;;;;9.58;2.42;;;;;;;25.30;57.65;99202.05;1750089;82;21041;-75
2021/06/20 07:46:25;;;;;;;10.20;2.30;;;;;;;25.43;58.01;99199.39;1750021;82;21429;-74
2021/06/20 07:48:51;;;;;;;12.73;2.40;;;;;;;25.55;56.22;99211.41;1749821;82;20986;-74
2021/06/20 07:51:18;;;;;;;9.13;2.90;;;;;;;25.55;55.68;99198.09;1749723;81;21529;-75
2021/06/20 07:53:44;;;;;;;9.85;2.10;;;;;;;25.54;56.20;99205.75;1749967;82;21084;-74
2021/06/20 07:56:11;;;;;;;11.57;2.42;;;;;;;25.59;56.64;99204.73;1749772;82;21002;-75
2021/06/20 07:58:37;;;;;;;7.20;2.08;;;;;;;25.63;56.81;99207.43;1749881;80;21053;-74
2021/06/20 08:01:04;;;;;;;14.15;2.55;;;;;;;25.71;56.37;99225.59;1749772;82;20954;-74
2021/06/20 08:03:32;;;;;;;9.00;1.87;;;;;;;25.72;56.79;99203.28;1749872;82;20986;-75
2021/06/20 08:05:58;;;;;;;13.18;2.37;;;;;;;25.76;56.82;99210.45;1749772;82;21113;-75
2021/06/20 08:08:25;;;;;;;13.60;2.80;;;;;;;25.76;56.26;99197.13;1749735;82;20934;-74
2021/06/20 08:10:52;;;;;;;10.85;2.25;;;;;;;25.74;57.06;99193.30;1750061;82;21442;-73
2021/06/20 08:13:20;;;;;;;11.93;2.85;;;;;;;25.80;56.02;99182.95;1749788;82;20917;-74
2021/06/20 08:15:48;;;;;;;9.85;2.45;;;;;;;25.86;55.99;99183.63;1749989;82;21508;-74
2021/06/20 08:18:15;;;;;;;17.05;2.67;;;;;;;25.85;55.18;99178.80;1749873;82;21135;-74
2021/06/20 08:20:41;;;;;;;10.20;2.35;;;;;;;25.79;55.16;99168.80;1749822;82;21025;-73
2021/06/20 08:23:08;;;;;;;18.07;2.87;;;;;;;25.72;54.41;99185.14;1750145;82;21512;-74
2021/06/20 08:25:35;;;;;;;11.55;2.25;;;;;;;25.63;55.13;99169.64;1749861;82;20962;-74
2021/06/20 08:28:01;;;;;;;13.83;2.27;;;;;;;25.63;54.74;99174.97;1750146;82;20966;-74
2021/06/20 08:30:27;;;;;;;13.28;2.95;;;;;;;25.70;55.53;99181.81;1750028;82;21722;-74
2021/06/20 08:32:54;;;;;;;18.32;3.12;;;;;;;25.89;55.41;99189.95;1749809;82;20970;-73
2021/06/20 08:35:21;;;;;;;9.05;2.35;;;;;;;26.04;55.76;99190.43;1749949;82;21468;-74
2021/06/20 08:37:47;;;;;;;13.40;2.40;;;;;;;26.19;55.37;99189.73;1749745;82;20985;-75
2021/06/20 08:40:15;;;;;;;10.38;2.80;;;;;;;26.29;54.88;99181.92;1749795;82;20964;-73
2021/06/20 08:42:41;;;;;;;11.43;2.65;;;;;;;26.36;54.69;99189.58;1749834;82;21143;-74
2021/06/20 08:45:09;;;;;;;11.85;2.75;;;;;;;26.35;54.84;99181.75;1749703;82;21065;-74
2021/06/20 08:47:36;;;;;;;12.63;2.60;;;;;;;26.29;55.22;99183.25;1749880;82;20942;-74
2021/06/20 08:50:04;;;;;;;10.85;2.25;;;;;;;26.23;54.99;99175.89;1750536;81;21096;-74
2021/06/20 08:52:30;;;;;;;17.20;2.50;;;;;;;26.28;56.06;99178.05;1755582;81;21449;-73
2021/06/20 08:55:11;;;;;;;10.28;2.20;;;;;;;26.33;56.91;99174.42;1755316;81;21134;-74
2021/06/20 08:57:42;;;;;;;7.42;1.77;;;;;;;26.39;56.19;99169.21;1755522;81;21544;-74
2021/06/20 09:00:12;;;;;;;10.78;2.22;;;;;;;26.42;53.96;99171.53;1755351;81;20953;-73
2021/06/20 09:02:39;;;;;;;8.43;1.72;;;;;;;26.37;54.74;99145.91;1754799;81;20985;-74
2021/06/20 09:05:09;;;;;;;9.95;2.10;;;;;;;26.35;53.42;99147.09;1755467;81;20981;-74
2021/06/20 09:07:41;;;;;;;12.28;1.45;;;;;;;26.35;51.54;99146.58;1755480;81;21120;-74
2021/06/20 09:10:10;;;;;;;4.67;1.62;;;;;;;26.33;52.55;99146.42;1755508;81;20938;-74
2021/06/20 09:12:49;;;;;;;11.38;1.85;;;;;;;26.34;52.60;99136.09;1755608;81;21013;-74
2021/06/20 09:15:19;;;;;;;6.42;1.90;;;;;;;26.34;51.28;99138.25;1755470;81;20942;-74
2021/06/20 09:17:53;;;;;;;7.95;1.67;;;;;;;26.34;51.41;99136.92;1755491;81;21067;-74
2021/06/20 09:20:37;;;;;;;8.90;1.67;;;;;;;26.39;50.89;99136.38;1754663;81;21084;-74
2021/06/20 09:23:12;;;;;;;6.60;1.40;;;;;;;26.49;50.22;99163.69;1754333;81;21457;-73
2021/06/20 09:25:43;;;;;;;10.85;2.00;;;;;;;26.54;51.52;99158.68;1754791;81;20993;-74
2021/06/20 09:28:10;;;;;;;11.70;2.02;;;;;;;26.65;52.09;99168.13;1755367;81;21005;-75
2021/06/20 09:30:49;;;;;;;10.32;2.02;;;;;;;26.81;51.25;99167.20;1755452;80;20914;-74
2021/06/20 09:33:16;;;;;;;6.15;1.47;;;;;;;26.92;49.39;99173.50;1755334;81;21406;-75
2021/06/20 09:35:56;;;;;;;14.80;2.05;;;;;;;26.94;49.19;99176.83;1755258;81;21525;-75
2021/06/20 09:38:31;;;;;;;8.35;1.67;;;;;;;26.90;48.92;99181.69;1755429;81;21378;-75
2021/06/20 09:41:09;;;;;;;10.75;1.67;;;;;;;26.88;49.57;99170.34;1755432;81;21032;-74
2021/06/20 09:43:40;;;;;;;6.40;1.60;;;;;;;26.90;49.18;99170.18;1755471;81;21032;-74
2021/06/20 09:46:10;;;;;;;3.17;1.50;;;;;;;26.92;49.53;99166.33;1727846;81;21124;-74
2021/06/20 09:48:38;;;;;;;7.97;1.57;;;;;;;26.96;49.00;99169.52;1755567;80;21501;-74
2021/06/20 09:51:22;;;;;;;12.63;1.75;;;;;;;26.98;48.32;99157.63;1755191;81;20978;-75
2021/06/20 09:53:50;;;;;;;4.47;1.60;;;;;;;26.97;48.21;99152.50;1755662;81;21512;-74
2021/06/20 09:56:21;;;;;;;7.60;1.22;;;;;;;27.01;48.05;99151.12;1755252;81;20942;-73
2021/06/20 09:59:00;;;;;;;11.22;2.00;;;;;;;27.03;47.97;99145.94;1755810;80;21775;-74
2021/06/20 10:01:31;;;;;;;9.98;1.87;;;;;;;27.10;49.06;99122.88;1755291;81;20977;-74
2021/06/20 10:03:57;;;;;;;7.15;1.25;;;;;;;27.23;47.90;99110.25;1755618;81;21053;-74
2021/06/20 10:06:24;;;;;;;8.90;1.62;;;;;;;27.35;48.41;99114.69;1755468;81;21387;-75
2021/06/20 10:08:51;;;;;;;3.92;1.22;;;;;;;27.45;45.46;99107.25;1755410;81;20989;-75
2021/06/20 10:11:17;;;;;;;3.50;1.10;;;;;;;27.55;45.55;99101.66;1755412;81;21742;-74
2021/06/20 10:13:44;;;;;;;18.70;1.40;;;;;;;27.67;45.22;99102.91;1755913;81;20973;-74
2021/06/20 10:16:24;;;;;;;2.92;1.00;;;;;;;27.75;45.98;99085.47;1755393;81;21001;-75
2021/06/20 10:19:01;;;;;;;11.48;2.25;;;;;;;27.84;45.09;99071.50;1755351;81;21023;-74
2021/06/20 10:21:39;;;;;;;3.67;1.30;;;;;;;27.93;45.05;99095.30;1755548;81;21067;-74
2021/06/20 10:24:14;;;;;;;5.33;1.22;;;;;;;28.09;45.71;99096.45;1754118;81;21814;-75
2021/06/20 10:26:45;;;;;;;5.55;1.72;;;;;;;28.26;44.33;99094.95;1755262;81;20985;-73
2021/06/20 10:29:28;;;;;;;7.17;1.35;;;;;;;28.27;44.71;99088.08;1753455;81;20993;-74
2021/06/20 10:31:55;;;;;;;7.15;1.35;;;;;;;28.21;44.49;99086.14;1754079;81;20986;-74
2021/06/20 10:34:25;;;;;;;1.82;1.05;;;;;;;28.02;44.65;99084.82;1755448;80;20934;-75
2021/06/20 10:37:07;;;;;;;8.25;1.42;;;;;;;27.87;44.13;99089.84;1755340;81;21195;-75
2021/06/20 10:39:33;;;;;;;7.60;1.40;;;;;;;27.74;43.51;99084.64;1755396;81;20938;-74
2021/06/20 10:42:11;;;;;;;3.58;1.27;;;;;;;27.63;42.29;99096.26;1755406;81;21037;-75
2021/06/20 10:44:48;;;;;;;13.00;1.60;;;;;;;27.56;42.84;99087.30;1755351;81;20918;-75
2021/06/20 10:47:35;;;;;;;7.42;1.12;;;;;;;27.57;43.04;99084.95;1754812;81;20930;-74
2021/06/20 10:50:11;;;;;;;5.37;2.10;;;;;;;27.58;42.13;99086.11;1755332;81;21127;-74
2021/06/20 10:52:38;;;;;;;9.38;1.22;;;;;;;27.59;42.49;99077.59;1748839;82;20918;-74
2021/06/20 10:55:16;;;;;;;5.70;1.35;;;;;;;27.63;42.17;99075.72;1749654;82;21002;-73
2021/06/20 10:57:55;;;;;;;7.22;1.37;;;;;;;27.68;42.36;99073.34;1749988;82;20981;-74
2021/06/20 11:00:36;;;;;;;3.92;1.17;;;;;;;27.73;42.65;99072.80;1749827;82;20962;-75
2021/06/20 11:03:28;;;;;;;3.70;1.17;;;;;;;27.69;42.19;99070.98;1749930;82;21106;-73
2021/06/20 11:06:10;;;;;;;5.87;1.30;;;;;;;27.59;42.54;99066.40;1749759;82;20938;-74
2021/06/20 11:08:43;;;;;;;5.62;1.90;;;;;;;27.48;42.87;99049.46;1749992;82;20954;-74
2021/06/20 11:11:22;;;;;;;4.05;1.30;;;;;;;27.44;43.35;99044.98;1748278;82;20997;-73
2021/06/20 11:14:00;;;;;;;5.50;1.47;;;;;;;27.43;43.09;99036.64;1749649;82;20946;-74
2021/06/20 11:16:38;;;;;;;6.08;1.20;;;;;;;27.41;44.25;99020.47;1749843;82;21153;-74
2021/06/20 11:19:28;;;;;;;7.42;1.35;;;;;;;27.40;45.12;99025.48;1749859;82;20957;-75
2021/06/20 11:22:10;;;;;;;6.92;1.40;;;;;;;27.36;45.23;99017.03;1749867;82;21465;-73
2021/06/20 11:24:46;;;;;;;4.80;1.20;;;;;;;27.31;45.55;98999.89;1749709;82;21013;-74
2021/06/20 11:27:17;;;;;;;2.87;1.20;;;;;;;27.20;45.60;98989.63;1749997;82;20973;-74
2021/06/20 11:29:50;;;;;;;5.55;1.15;;;;;;;27.06;44.98;99007.28;1750125;82;21121;-74
2021/06/20 11:32:20;;;;;;;5.78;1.05;;;;;;;26.99;45.33;99019.67;1749871;82;20982;-74
2021/06/20 11:34:53;;;;;;;6.08;1.40;;;;;;;26.91;45.60;99035.23;1749897;82;21409;-73
2021/06/20 11:37:33;;;;;;;3.90;1.00;;;;;;;26.84;45.98;99026.27;1744544;82;21485;-74
2021/06/20 11:40:06;;;;;;;4.30;1.40;;;;;;;26.84;46.00;99033.45;1749957;82;21041;-75